createdAt,value
2023-05-13T09:00:51.818Z,65.56
2023-05-13T09:01:53.186Z,65.53
2023-05-13T09:02:53.894Z,66.34
2023-05-13T09:03:54.598Z,66.03
2023-05-13T09:04:55.398Z,66.14
2023-05-13T09:05:56.196Z,66.84
2023-05-13T09:06:56.933Z,64.70
2023-05-13T09:07:57.679Z,64.90
2023-05-13T09:08:58.390Z,65.10
2023-05-13T09:09:59.097Z,64.50
2023-05-13T09:10:59.798Z,63.17
2023-05-13T09:12:00.529Z,63.67
2023-05-13T09:13:01.274Z,64.67
2023-05-13T09:14:01.985Z,63.17
2023-05-13T09:15:02.737Z,63.06
2023-05-13T09:16:03.489Z,63.36
2023-05-13T09:17:04.230Z,61.46
2023-05-13T09:18:05.145Z,62.73
2023-05-13T09:19:06.170Z,61.93
2023-05-13T09:20:07.073Z,60.93
2023-05-13T09:21:07.855Z,61.93
2023-05-13T09:22:08.629Z,61.83
2023-05-13T09:23:09.444Z,62.26
2023-05-13T09:24:11.285Z,62.93
2023-05-13T09:25:11.144Z,62.13
2023-05-13T09:26:11.901Z,61.52
2023-05-13T09:27:12.654Z,62.73
2023-05-13T09:28:13.371Z,62.73
2023-05-13T09:29:14.077Z,63.03
2023-05-13T09:30:14.806Z,62.63
2023-05-13T09:31:15.570Z,63.31
2023-05-13T09:32:16.333Z,63.81
2023-05-13T09:33:17.111Z,63.31
2023-05-13T09:34:17.848Z,63.60
2023-05-13T09:35:18.624Z,62.57
2023-05-13T09:36:19.503Z,61.07
2023-05-13T09:37:20.278Z,60.36
2023-05-13T09:38:20.978Z,57.46
2023-05-13T09:39:21.670Z,58.83
2023-05-13T09:40:23.891Z,58.06
2023-05-13T09:41:22.976Z,58.13
2023-05-13T09:42:23.738Z,59.23
2023-05-13T09:43:24.444Z,57.63
2023-05-13T09:44:25.151Z,55.93
2023-05-13T09:45:25.879Z,57.03
2023-05-13T09:46:26.665Z,58.53
2023-05-13T09:47:27.394Z,58.63
2023-05-13T09:48:28.088Z,58.33
2023-05-13T09:49:28.815Z,58.23
2023-05-13T09:50:29.566Z,58.94
2023-05-13T09:51:30.239Z,58.83
2023-05-13T09:52:30.916Z,58.81
2023-05-13T09:53:31.634Z,57.50
2023-05-13T09:54:33.139Z,58.30
2023-05-13T09:55:33.349Z,61.61
2023-05-13T09:56:34.158Z,61.91
2023-05-13T09:57:34.870Z,60.11
2023-05-13T09:58:35.570Z,64.48
2023-05-13T09:59:36.283Z,63.21
2023-05-13T10:01:37.722Z,63.61
2023-05-13T10:02:38.478Z,65.01
2023-05-13T10:03:39.277Z,62.51
2023-05-13T10:04:40.050Z,62.41
2023-05-13T10:05:40.762Z,63.42
2023-05-13T10:06:41.516Z,57.80
2023-05-13T10:07:42.193Z,58.50
2023-05-13T10:08:42.912Z,63.11
2023-05-13T10:09:43.638Z,61.21
2023-05-13T10:10:44.345Z,59.91
2023-05-13T10:11:46.602Z,62.81
2023-05-13T10:12:45.580Z,65.72
2023-05-13T10:13:46.348Z,66.62
2023-05-13T10:14:47.071Z,67.76
2023-05-13T10:15:47.785Z,66.62
2023-05-13T10:16:48.532Z,68.76
2023-05-13T10:17:49.310Z,61.74
2023-05-13T10:18:50.129Z,63.45
2023-05-13T10:19:50.859Z,59.23
2023-05-13T10:20:51.621Z,61.24
2023-05-13T10:21:52.506Z,65.45
2023-05-13T10:22:53.230Z,66.75
2023-05-13T10:23:53.962Z,66.15
2023-05-13T10:24:54.700Z,59.13
2023-05-13T10:25:55.430Z,57.73
2023-05-13T10:26:56.121Z,56.43
2023-05-13T10:27:56.847Z,56.00
2023-05-13T10:28:57.577Z,55.10
2023-05-13T10:29:58.292Z,60.61
2023-05-13T10:30:59.036Z,61.51
2023-05-13T10:31:59.837Z,62.31
2023-05-13T10:33:00.608Z,61.91
2023-05-13T10:34:01.347Z,57.00
2023-05-13T10:35:02.046Z,59.28
2023-05-13T10:36:02.750Z,61.38
2023-05-13T10:37:03.480Z,60.88
2023-05-13T10:38:33.524Z,59.08
2023-05-13T17:31:42.467Z,85.90
2023-05-13T17:32:44.005Z,86.10
2023-05-13T17:33:44.667Z,86.51
2023-05-13T17:34:46.072Z,86.61
2023-05-13T17:35:47.722Z,86.91
2023-05-13T17:36:49.872Z,87.12
2023-05-13T17:37:48.017Z,87.12
2023-05-13T17:38:48.747Z,87.22
2023-05-13T17:39:49.558Z,87.22
2023-05-13T17:40:50.839Z,87.52
2023-05-13T17:41:51.665Z,86.82
2023-05-13T17:42:52.939Z,86.91
2023-05-13T17:43:54.121Z,86.91
2023-05-13T17:44:53.852Z,87.32
2023-05-13T17:45:54.012Z,84.58
2023-05-13T17:46:54.755Z,86.15
2023-05-13T17:47:55.601Z,87.02
2023-05-13T17:48:56.385Z,87.32
2023-05-13T17:49:57.168Z,86.86
2023-05-13T17:50:57.893Z,87.16
2023-05-13T17:51:58.773Z,87.32
2023-05-13T17:52:59.468Z,87.63
2023-05-13T17:54:00.285Z,87.97
2023-05-13T17:55:01.061Z,88.28
2023-05-13T17:56:01.802Z,88.78
2023-05-13T17:57:02.525Z,88.68
2023-05-13T17:58:03.322Z,88.78
2023-05-13T17:59:04.886Z,88.58
2023-05-13T18:00:05.056Z,88.58
2023-05-13T18:01:05.807Z,88.89
2023-05-13T18:02:06.671Z,89.39
2023-05-13T18:03:07.618Z,89.29
2023-05-13T18:04:08.329Z,89.19
2023-05-13T18:05:09.070Z,88.89
2023-05-13T18:06:09.929Z,88.89
2023-05-13T18:07:10.692Z,89.29
2023-05-13T18:08:11.393Z,89.09
2023-05-13T18:09:12.102Z,88.48
2023-05-13T18:10:12.810Z,88.78
2023-05-13T18:11:13.494Z,89.19
2023-05-13T18:12:14.201Z,89.19
2023-05-13T18:13:14.923Z,89.29
2023-05-13T18:14:15.653Z,88.89
2023-05-13T18:15:16.387Z,89.19
2023-05-13T18:16:18.729Z,88.99
2023-05-13T18:17:17.842Z,89.50
2023-05-13T18:18:18.588Z,89.80
2023-05-13T18:19:19.291Z,90.14
2023-05-13T18:20:20.280Z,90.25
2023-05-13T18:21:20.629Z,90.51
2023-05-13T18:22:21.378Z,90.25
2023-05-13T18:23:22.133Z,89.94
2023-05-13T18:24:23.055Z,90.35
2023-05-13T18:25:23.921Z,90.55
2023-05-13T18:26:24.716Z,90.55
2023-05-13T18:27:26.355Z,90.25
2023-05-13T18:28:28.232Z,90.14
2023-05-13T18:29:27.221Z,90.20
2023-05-13T18:31:28.966Z,89.84
2023-05-13T18:32:29.711Z,89.74
2023-05-13T18:33:30.412Z,89.43
2023-05-13T18:34:31.101Z,89.74
2023-05-13T18:35:31.798Z,90.05
2023-05-13T18:36:32.484Z,89.74
2023-05-13T18:37:33.199Z,89.13
2023-05-13T18:38:33.924Z,89.64
2023-05-13T18:39:34.610Z,89.84
2023-05-13T18:40:35.334Z,90.14
2023-05-13T18:41:36.039Z,90.25
2023-05-13T18:42:36.736Z,90.14
2023-05-13T18:43:37.442Z,89.84
2023-05-13T18:44:38.145Z,89.64
2023-05-13T18:45:40.152Z,89.74
2023-05-13T18:46:39.745Z,90.05
2023-05-13T18:47:41.386Z,89.74
2023-05-13T18:48:41.509Z,89.64
2023-05-13T18:49:42.920Z,89.74
2023-05-13T18:50:43.106Z,90.05
2023-05-13T18:51:43.951Z,90.14
2023-05-13T18:52:44.765Z,90.25
2023-05-13T18:53:45.498Z,90.35
2023-05-13T18:54:46.263Z,90.39
2023-05-13T18:55:47.997Z,90.14
2023-05-13T18:56:47.621Z,89.54
2023-05-13T18:57:48.401Z,89.48
2023-05-13T18:58:49.706Z,90.19
2023-05-13T18:59:50.351Z,90.29
2023-05-13T19:00:50.462Z,89.78
2023-05-13T19:01:51.465Z,89.17
2023-05-13T19:02:52.330Z,89.78
2023-05-13T19:03:53.182Z,89.78
2023-05-13T19:04:53.917Z,89.78
2023-05-13T19:05:54.700Z,89.68
2023-05-13T19:06:55.447Z,90.39
2023-05-13T19:07:56.174Z,90.59
2023-05-13T19:08:56.861Z,90.29
2023-05-13T19:09:57.576Z,89.68
2023-05-13T19:10:58.283Z,89.68
2023-05-13T19:11:58.994Z,90.39
2023-05-13T19:12:59.704Z,90.39
2023-05-13T19:14:00.441Z,90.39
2023-05-13T19:15:01.154Z,90.09
2023-05-13T19:16:01.928Z,90.39
2023-05-13T19:17:02.732Z,90.29
2023-05-13T19:18:03.481Z,90.59
2023-05-13T19:19:04.255Z,90.49
2023-05-13T19:20:05.003Z,90.09
2023-05-13T19:21:05.968Z,89.37
2023-05-13T19:22:06.696Z,89.68
2023-05-13T19:23:07.393Z,89.58
2023-05-13T19:24:08.102Z,90.19
2023-05-13T19:25:08.841Z,90.59
2023-05-13T19:26:09.530Z,90.70
2023-05-13T19:27:10.064Z,90.59
2023-05-13T19:28:10.829Z,89.68
2023-05-13T19:29:11.570Z,90.19
2023-05-13T19:30:12.296Z,90.29
2023-05-13T19:31:13.080Z,90.49
2023-05-13T19:32:13.527Z,90.13
2023-05-13T19:33:14.271Z,89.42
2023-05-13T19:34:15.000Z,89.92
2023-05-13T19:35:15.696Z,90.23
2023-05-13T19:36:16.409Z,90.44
2023-05-13T19:37:17.102Z,90.53
2023-05-13T19:38:17.809Z,90.44
2023-05-13T19:39:18.523Z,90.84
2023-05-13T19:40:19.250Z,90.84
2023-05-13T19:41:19.970Z,90.53
2023-05-13T19:42:20.652Z,89.52
2023-05-13T19:43:21.353Z,89.42
2023-05-13T19:44:22.057Z,89.31
2023-05-13T19:45:22.759Z,89.31
2023-05-13T19:46:23.577Z,89.52
2023-05-13T19:47:24.287Z,89.62
2023-05-13T19:48:24.974Z,89.62
2023-05-13T19:49:25.721Z,89.62
2023-05-13T19:50:26.394Z,89.42
2023-05-13T19:51:27.116Z,89.22
2023-05-13T19:52:27.822Z,89.11
2023-05-13T19:53:28.554Z,89.11
2023-05-13T19:54:29.342Z,89.01
2023-05-13T19:55:30.163Z,88.81
2023-05-13T19:56:31.753Z,89.11
2023-05-13T19:57:31.896Z,88.91
2023-05-13T19:58:32.680Z,88.81
2023-05-13T19:59:34.265Z,89.15
2023-05-13T20:00:34.446Z,89.56
2023-05-13T20:01:35.272Z,89.62
2023-05-13T20:02:36.036Z,89.62
2023-05-13T20:03:37.115Z,89.56
2023-05-13T20:04:37.365Z,89.56
2023-05-13T20:05:38.119Z,89.26
2023-05-13T20:06:38.785Z,89.15
2023-05-13T20:07:39.660Z,88.95
2023-05-13T20:08:40.765Z,89.36
2023-05-13T20:09:40.927Z,89.36
2023-05-13T20:10:41.668Z,89.15
2023-05-13T20:11:42.420Z,89.56
2023-05-13T20:12:43.194Z,89.15
2023-05-13T20:13:43.973Z,89.05
2023-05-13T20:14:44.672Z,88.85
2023-05-13T20:15:45.445Z,88.75
2023-05-13T20:16:46.196Z,88.65
2023-05-13T20:17:47.047Z,89.36
2023-05-13T20:18:47.902Z,89.20
2023-05-13T20:19:48.602Z,89.40
2023-05-13T20:20:49.424Z,89.30
2023-05-13T20:21:50.165Z,89.20
2023-05-13T20:22:50.871Z,89.30
2023-05-13T20:23:51.601Z,89.20
2023-05-13T20:24:52.297Z,89.20
2023-05-13T20:25:53.003Z,89.20
2023-05-13T20:26:53.844Z,89.30
2023-05-13T20:27:54.650Z,89.50
2023-05-13T20:28:55.362Z,89.61
2023-05-13T20:29:56.095Z,89.70
2023-05-13T20:30:56.940Z,90.01
2023-05-13T20:31:57.758Z,89.81
2023-05-13T20:32:58.572Z,89.70
2023-05-13T20:33:59.301Z,89.81
2023-05-13T20:35:00.161Z,89.91
2023-05-13T20:36:00.913Z,89.91
2023-05-13T20:37:01.723Z,89.95
2023-05-13T20:38:02.552Z,89.85
2023-05-13T20:39:03.249Z,89.95
2023-05-13T20:40:03.982Z,89.34
2023-05-13T20:41:04.728Z,89.54
2023-05-13T20:42:05.441Z,89.44
2023-05-13T20:43:07.810Z,89.54
2023-05-13T20:44:06.976Z,89.85
2023-05-13T20:45:07.662Z,89.85
2023-05-13T20:46:08.407Z,89.75
2023-05-13T20:47:09.088Z,89.54
2023-05-13T20:48:11.468Z,89.03
2023-05-13T20:49:10.423Z,89.03
2023-05-13T20:50:12.271Z,89.14
2023-05-13T20:51:11.879Z,89.34
2023-05-13T20:52:12.891Z,89.54
2023-05-13T20:53:13.769Z,89.44
2023-05-13T20:54:14.709Z,88.93
2023-05-13T20:55:15.532Z,88.93
2023-05-13T20:56:16.298Z,89.34
2023-05-13T20:57:17.024Z,89.34
2023-05-13T20:58:18.051Z,89.44
2023-05-13T20:59:18.890Z,89.14
2023-05-13T21:00:19.788Z,89.44
2023-05-13T21:01:21.112Z,89.38
2023-05-13T21:02:21.498Z,89.48
2023-05-13T21:03:25.120Z,89.28
2023-05-13T21:04:24.970Z,88.98
2023-05-13T21:05:28.438Z,88.98
2023-05-13T21:06:24.758Z,88.87
2023-05-13T21:07:27.418Z,88.67
2023-05-13T21:08:26.568Z,88.87
2023-05-13T21:09:28.634Z,88.98
2023-05-13T21:10:30.979Z,88.98
2023-05-13T21:11:32.171Z,89.18
2023-05-13T21:12:31.935Z,89.38
2023-05-13T21:13:31.216Z,89.48
2023-05-13T21:14:34.557Z,89.89
2023-05-13T21:15:36.681Z,90.20
2023-05-13T21:16:33.227Z,89.89
2023-05-13T21:17:35.901Z,89.89
2023-05-13T21:18:40.581Z,89.48
2023-05-13T21:19:37.373Z,89.18
2023-05-13T21:20:35.940Z,89.18
2023-05-13T21:21:37.440Z,89.59
2023-05-13T21:22:37.774Z,89.69
2023-05-13T21:23:38.562Z,89.79
2023-05-13T21:24:39.364Z,89.48
2023-05-13T21:25:40.874Z,89.38
2023-05-13T21:26:41.398Z,89.28
2023-05-13T21:27:41.782Z,89.18
2023-05-13T21:28:42.388Z,89.53
2023-05-13T21:29:42.758Z,89.53
2023-05-13T21:30:43.752Z,88.98
2023-05-13T21:31:44.568Z,89.12
2023-05-13T21:32:45.484Z,89.53
2023-05-13T21:33:46.326Z,89.83
2023-05-13T21:34:47.277Z,89.73
2023-05-13T21:35:48.636Z,89.42
2023-05-13T21:36:49.984Z,89.22
2023-05-13T21:37:52.279Z,88.92
2023-05-13T21:38:50.334Z,89.22
2023-05-13T21:39:51.072Z,89.32
2023-05-13T21:40:52.219Z,89.12
2023-05-13T21:41:52.830Z,89.32
2023-05-13T21:42:53.288Z,89.32
2023-05-13T21:43:54.123Z,89.22
2023-05-13T21:44:55.092Z,89.32
2023-05-13T21:45:57.340Z,89.32
2023-05-13T21:46:57.755Z,89.63
2023-05-13T21:47:58.140Z,89.32
2023-05-13T21:48:59.045Z,89.32
2023-05-13T21:49:59.791Z,89.53
2023-05-13T21:51:01.470Z,89.42
2023-05-13T21:52:01.562Z,89.42
2023-05-13T21:53:02.492Z,89.94
2023-05-13T21:54:05.277Z,90.14
2023-05-13T21:55:04.267Z,89.83
2023-05-13T21:56:04.977Z,89.53
2023-05-13T21:57:05.721Z,89.42
2023-05-13T21:58:06.462Z,89.83
2023-05-13T21:59:07.168Z,89.73
2023-05-13T22:00:07.961Z,89.87
2023-05-13T22:01:08.727Z,89.97
2023-05-13T22:02:09.520Z,89.87
2023-05-13T22:03:10.290Z,89.57
2023-05-13T22:04:11.082Z,89.97
2023-05-13T22:05:11.785Z,90.28
2023-05-13T22:06:12.508Z,90.28
2023-05-13T22:07:13.229Z,89.67
2023-05-13T22:08:13.914Z,89.77
2023-05-13T22:09:14.701Z,90.28
2023-05-13T22:10:15.434Z,90.28
2023-05-13T22:11:16.139Z,89.97
2023-05-13T22:12:16.843Z,89.47
2023-05-13T22:13:17.584Z,89.67
2023-05-13T22:14:18.351Z,89.97
2023-05-13T22:15:19.097Z,90.08
2023-05-13T22:16:19.887Z,89.97
2023-05-13T22:17:20.763Z,90.18
2023-05-13T22:18:21.743Z,90.63
2023-05-13T22:19:22.771Z,90.42
2023-05-13T22:20:23.839Z,89.87
2023-05-13T22:21:24.151Z,89.40
2023-05-13T22:22:24.858Z,89.81
2023-05-13T22:23:25.575Z,89.81
2023-05-13T22:24:26.254Z,89.40
2023-05-13T22:25:26.983Z,89.20
2023-05-13T22:26:27.645Z,89.51
2023-05-13T22:27:28.366Z,90.01
2023-05-13T22:28:29.083Z,89.92
2023-05-13T22:29:29.775Z,89.61
2023-05-13T22:30:30.467Z,89.30
2023-05-13T22:31:31.196Z,89.30
2023-05-13T22:32:31.942Z,89.10
2023-05-13T22:33:32.665Z,89.10
2023-05-13T22:34:33.341Z,89.10
2023-05-13T22:35:34.046Z,89.00
2023-05-13T22:36:35.073Z,89.00
2023-05-13T22:37:35.813Z,89.40
2023-05-13T22:38:36.544Z,89.92
2023-05-13T22:39:37.271Z,89.92
2023-05-13T22:40:37.968Z,89.81
2023-05-13T22:41:38.727Z,89.92
2023-05-13T22:42:39.451Z,89.81
2023-05-13T22:43:40.144Z,89.61
2023-05-13T22:44:40.861Z,89.55
2023-05-13T22:45:41.553Z,90.16
2023-05-13T22:46:42.398Z,90.42
2023-05-13T22:47:43.219Z,90.47
2023-05-13T22:48:43.897Z,90.36
2023-05-13T22:49:44.592Z,90.53
2023-05-13T22:50:45.308Z,90.06
2023-05-13T22:51:46.026Z,89.65
2023-05-13T22:52:46.792Z,89.55
2023-05-13T22:53:47.482Z,89.45
2023-05-13T22:54:48.186Z,89.96
2023-05-13T22:55:49.019Z,90.16
2023-05-13T22:56:49.714Z,90.36
2023-05-13T22:57:50.442Z,90.26
2023-05-13T22:58:51.150Z,90.47
2023-05-13T22:59:51.841Z,90.36
2023-05-13T23:00:52.558Z,89.65
2023-05-13T23:01:53.296Z,89.34
2023-05-13T23:02:54.095Z,89.25
2023-05-13T23:03:54.864Z,89.86
2023-05-13T23:04:55.582Z,90.06
2023-05-13T23:05:56.289Z,89.86
2023-05-13T23:06:56.990Z,89.45
2023-05-13T23:07:57.708Z,89.55
2023-05-13T23:08:58.407Z,89.86
2023-05-13T23:09:59.143Z,90.26
2023-05-13T23:10:59.878Z,90.26
2023-05-13T23:12:00.586Z,90.06
2023-05-13T23:13:01.283Z,90.36
2023-05-13T23:14:01.991Z,90.16
2023-05-13T23:15:02.715Z,89.75
2023-05-13T23:16:03.489Z,89.96
2023-05-13T23:17:04.213Z,90.10
2023-05-13T23:18:04.992Z,90.41
2023-05-13T23:19:05.786Z,90.61
2023-05-13T23:20:06.574Z,90.61
2023-05-13T23:21:07.307Z,90.81
2023-05-13T23:22:08.008Z,90.92
2023-05-13T23:23:08.705Z,91.12
2023-05-13T23:24:09.433Z,91.12
2023-05-13T23:25:10.133Z,91.02
2023-05-13T23:26:10.831Z,90.61
2023-05-13T23:27:11.541Z,89.90
2023-05-13T23:28:12.255Z,89.90
2023-05-13T23:29:12.966Z,89.59
2023-05-13T23:30:13.726Z,89.28
2023-05-13T23:31:14.473Z,88.78
2023-05-13T23:32:15.155Z,88.88
2023-05-13T23:33:15.875Z,88.98
2023-05-13T23:34:16.579Z,89.49
2023-05-13T23:35:17.295Z,89.59
2023-05-13T23:36:17.989Z,89.18
2023-05-13T23:37:18.687Z,89.28
2023-05-13T23:38:19.405Z,89.69
2023-05-13T23:39:20.145Z,90.00
2023-05-13T23:40:21.010Z,90.00
2023-05-13T23:41:21.922Z,89.79
2023-05-13T23:42:22.630Z,89.69
2023-05-13T23:43:23.364Z,89.90
2023-05-13T23:44:24.040Z,89.90
2023-05-13T23:45:24.769Z,89.69
2023-05-13T23:46:25.494Z,89.63
2023-05-13T23:47:26.220Z,89.43
2023-05-13T23:48:26.924Z,89.53
2023-05-13T23:49:27.612Z,89.84
2023-05-13T23:50:28.323Z,89.53
2023-05-13T23:51:29.024Z,89.63
2023-05-13T23:52:29.780Z,89.63
2023-05-13T23:53:30.492Z,89.84
2023-05-13T23:54:31.208Z,90.14
2023-05-13T23:55:32.022Z,90.35
2023-05-13T23:56:32.732Z,90.55
2023-05-13T23:57:33.453Z,90.66
2023-05-13T23:58:34.150Z,90.66
2023-05-13T23:59:34.973Z,90.75
